METAR AND TAF INFORMATION
METAR FOR LTAJ
ADDS - METARS form results

(0336 UTC 21 May 2019)
Data provider http://aviationweather.gov/metar/data/
 
METAR text: LTAJ 210320Z 00000KT CAVOK 17/11 Q1015 NOSIG RMK RWY10 00000KT
Conditions at: LTAJ (GAZIANTEP , TR) observed 0320 UTC 21 May 2019
Temperature: 17.0°C (63°F)
Dewpoint: 11.0°C (52°F) [RH = 68%]
Pressure (altimeter): 29.97 inches Hg (1015.0 mb)
Winds: calm
Visibility: 6 or more miles (10+ km)
Ceiling: ceiling and visibility are OK
Clouds: unknown
Weather: no significant weather observed at this time

METAR text: LTAJ 210250Z 00000KT CAVOK 15/10 Q1015 NOSIG RMK RWY10 00000KT
Conditions at: LTAJ (GAZIANTEP , TR) observed 0250 UTC 21 May 2019
Temperature: 15.0°C (59°F)
Dewpoint: 10.0°C (50°F) [RH = 72%]
Pressure (altimeter): 29.97 inches Hg (1015.0 mb)
Winds: calm
Visibility: 6 or more miles (10+ km)
Ceiling: ceiling and visibility are OK
Clouds: unknown
Weather: no significant weather observed at this time

Forecast for: LTAJ (GAZIANTEP , TR)
Text: TAF LTAJ 202240Z 2100/2124 33006KT CAVOK
Forecast period: 0000 to 0800 UTC 21 May 2019
Forecast type: FROM: standard forecast or significant change
Winds: from the NNW (330 degrees) at 7 MPH (6 knots; 3.1 m/s)
Visibility: 6 or more miles 10+ km)
Ceiling: unknown
Clouds: missing
Weather: NSW  (no significant weather)
Text: BECMG 2108/2110 25012KT
Forecast period: 0800 UTC 21 May 2019 to 0000 UTC 22 May 2019
Forecast type: BECOMING: Conditions expected to become as follows by 1000 UTC 21 May 2019
Winds: from the WSW (250 degrees) at 14 MPH (12 knots; 6.2 m/s)
Visibility: 6 or more miles 10+ km)
Ceiling: unknown
Clouds: missing
Weather: NSW  (no significant weather)
Text: TEMPO 2111/2115 26015G25KT
Forecast period: 1100 to 1500 UTC 21 May 2019
Forecast type: TEMPORARY: The following changes expected for less than half the time period
Winds: from the W (260 degrees) at 17 MPH (15 knots; 7.7 m/s)
gusting to 29 MPH (25 knots; 12.9 m/s)
Visibility: missing
Ceiling: unknown
Clouds: missing
Weather: no significant weather forecast for this period

 AIRPORT MAP

 RUNWAY INFORMATION
Runway 10L Runway length 9843 ft Runway width 157 ft
Runway elevation 2315 ft Runway displaced threshold 427 ft Runway heading 105
Runway 28R Runway length 9843 ft Runway width 157 ft
Runway elevation 2190 ft Runway displaced threshold 0 ft Runway heading 285
Runway 10R Runway length 9842 ft Runway width 100 ft
Runway elevation 2309 ft Runway displaced threshold 328 ft Runway heading 105
Runway 28L Runway length 9842 ft Runway width 100 ft
Runway elevation 2215 ft Runway displaced threshold 0 ft Runway heading 285

 AIRPORT FREQUENCIES
Type APP Name APP Frequency 120.1 MHZ
Type ATIS Name Frequency 119.275 MHZ
Type TWR Name TWR Frequency 120.1 MHZ

 AIRPORT NEAR NAVIGATION AIDS
Type VOR-DME Name Gaziantep Frequency 116700 KHZ
Type NDB Name Oguzeli Frequency 432 KHZ



>